Karluk, AK (99608)

3:30 PM AKST on December 18, 2014 (GMT -0900)
RAWS BOOTH LAKE AK US | Change Station
CLOSE
Current Station
Personal Weather Station
Location: Karluk, AK
Elevation: 170 ft
Nearby Weather Stations

Elev 170 ft 57.27 °N, 154.57 °W | Updated 36 minutes ago

Overcast
Overcast
41 °F
Feels Like 34 °F
N
12
Wind Variable Wind from ENE
Gusts 29.0 mph

Today
High -- | Low -- °F
--% Chance of Precip.
Yesterday
High -- | Low -- °F
Precip. -- in
9:57 AM 4:32 PM
Waning Crescent, 11% visible
Pressure 29.17 in
Visibility 8.0 miles
Clouds Scattered Clouds 800 ft
Mostly Cloudy 1500 ft
Overcast 2000 ft
Windchill 34 °F
Dew Point 36 °F
Humidity 81%
Rainfall 0.00 in
Snow Depth Not available.
UV 0 out of 12
Pollen Not available.
Air Quality Not available.
Flu Activity Not available.
METAR PADQ 182353Z 03022G29KT 8SM SCT008 BKN015 OVC020 06/05 A2917 RMK AO2 PK WND 03031/2300 RAE33 SLP878 P0001 60009 T00610050 10067 20061 56017

More Conditions Fewer Conditions

Pressure 29.17 in
Visibility 8.0 miles
Clouds Scattered Clouds 800 ft
Mostly Cloudy 1500 ft
Overcast 2000 ft
Windchill 34 °F
Dew Point 36 °F
Humidity 81%
Rainfall 0.00 in
Snow Depth Not available.
UV 0 out of 12
Pollen Not available.
Air Quality Not available.
Flu Activity Not available.
METAR PADQ 182353Z 03022G29KT 8SM SCT008 BKN015 OVC020 06/05 A2917 RMK AO2 PK WND 03031/2300 RAE33 SLP878 P0001 60009 T00610050 10067 20061 56017

More Conditions Fewer Conditions

10-Day Weather Forecast

Almanac

Astronomy

Dec. 18, 2014 Rise Set
Actual Time
Civil Twilight
Nautical Twilight
Astronomical Twilight
Moon
Length of Visible Light
Length of Day
Tomorrow will be .
, % of the Moon is Illuminated

Today's Extremes

State Highs State Lows

Community

WunderPhotos

Upload Photos

1,779,016 photos uploaded!

WunderBlogs® & News

Nearby

Air Quality

  Air Quality AQ Index Pollutant
Not available.

Snow Depth

Station Depth Elevation

Earthquake Activity

City Distance Mag. Time & Date
Minimum magnitude displayed is 2.5.

Coastal Water Temperatures

Place Temperature

Nearby Weather Stations